sensor_id;sensor_type;location;lat;lon;timestamp;P1;durP1;ratioP1;P2;durP2;ratioP2
15342;SDS011;7771;48.478;8.936;2023-03-03T00:00:07;52.27;;;27.43;;
15342;SDS011;7771;48.478;8.936;2023-03-03T00:02:34;59.20;;;29.90;;
15342;SDS011;7771;48.478;8.936;2023-03-03T00:05:01;45.97;;;26.63;;
15342;SDS011;7771;48.478;8.936;2023-03-03T00:07:28;55.03;;;28.77;;
15342;SDS011;7771;48.478;8.936;2023-03-03T00:09:55;50.70;;;27.67;;
15342;SDS011;7771;48.478;8.936;2023-03-03T00:12:23;52.33;;;27.37;;
15342;SDS011;7771;48.478;8.936;2023-03-03T00:14:50;55.37;;;29.13;;
15342;SDS011;7771;48.478;8.936;2023-03-03T00:17:24;52.40;;;28.60;;
15342;SDS011;7771;48.478;8.936;2023-03-03T00:19:52;50.87;;;27.67;;
15342;SDS011;7771;48.478;8.936;2023-03-03T00:22:21;50.37;;;27.07;;
15342;SDS011;7771;48.478;8.936;2023-03-03T00:24:46;53.17;;;28.67;;
15342;SDS011;7771;48.478;8.936;2023-03-03T00:27:18;48.70;;;26.57;;
15342;SDS011;7771;48.478;8.936;2023-03-03T00:29:45;45.87;;;26.27;;
15342;SDS011;7771;48.478;8.936;2023-03-03T00:32:16;49.60;;;26.87;;
15342;SDS011;7771;48.478;8.936;2023-03-03T00:34:49;47.50;;;26.23;;
15342;SDS011;7771;48.478;8.936;2023-03-03T00:37:22;55.50;;;27.53;;
15342;SDS011;7771;48.478;8.936;2023-03-03T00:39:47;51.57;;;27.60;;
15342;SDS011;7771;48.478;8.936;2023-03-03T00:42:14;53.83;;;28.07;;
15342;SDS011;7771;48.478;8.936;2023-03-03T00:44:42;51.53;;;27.13;;
15342;SDS011;7771;48.478;8.936;2023-03-03T00:47:13;48.60;;;27.87;;
15342;SDS011;7771;48.478;8.936;2023-03-03T00:49:42;50.57;;;27.73;;
15342;SDS011;7771;48.478;8.936;2023-03-03T00:52:14;52.80;;;27.03;;
15342;SDS011;7771;48.478;8.936;2023-03-03T00:54:39;51.40;;;27.57;;
15342;SDS011;7771;48.478;8.936;2023-03-03T00:57:07;51.53;;;26.80;;
15342;SDS011;7771;48.478;8.936;2023-03-03T00:59:33;49.00;;;26.10;;
15342;SDS011;7771;48.478;8.936;2023-03-03T01:02:00;53.77;;;27.97;;
15342;SDS011;7771;48.478;8.936;2023-03-03T01:04:28;52.13;;;28.07;;
15342;SDS011;7771;48.478;8.936;2023-03-03T01:06:55;44.33;;;26.23;;
15342;SDS011;7771;48.478;8.936;2023-03-03T01:09:22;47.80;;;26.30;;
15342;SDS011;7771;48.478;8.936;2023-03-03T01:11:49;49.37;;;26.00;;
15342;SDS011;7771;48.478;8.936;2023-03-03T01:14:16;47.63;;;26.37;;
15342;SDS011;7771;48.478;8.936;2023-03-03T01:16:43;47.40;;;26.60;;
15342;SDS011;7771;48.478;8.936;2023-03-03T01:19:11;48.43;;;26.80;;
15342;SDS011;7771;48.478;8.936;2023-03-03T01:21:38;47.03;;;26.23;;
15342;SDS011;7771;48.478;8.936;2023-03-03T01:24:04;49.20;;;26.77;;
15342;SDS011;7771;48.478;8.936;2023-03-03T01:26:32;48.77;;;26.27;;
15342;SDS011;7771;48.478;8.936;2023-03-03T01:28:59;46.97;;;27.00;;
15342;SDS011;7771;48.478;8.936;2023-03-03T01:31:26;46.20;;;26.47;;
15342;SDS011;7771;48.478;8.936;2023-03-03T01:33:53;51.63;;;27.00;;
15342;SDS011;7771;48.478;8.936;2023-03-03T01:36:23;49.47;;;27.33;;
15342;SDS011;7771;48.478;8.936;2023-03-03T01:38:48;52.13;;;27.43;;
15342;SDS011;7771;48.478;8.936;2023-03-03T01:41:15;49.80;;;27.13;;
15342;SDS011;7771;48.478;8.936;2023-03-03T01:43:43;50.10;;;26.53;;
15342;SDS011;7771;48.478;8.936;2023-03-03T01:48:46;50.40;;;26.67;;
15342;SDS011;7771;48.478;8.936;2023-03-03T01:51:14;47.80;;;26.33;;
15342;SDS011;7771;48.478;8.936;2023-03-03T01:53:43;47.77;;;25.70;;
15342;SDS011;7771;48.478;8.936;2023-03-03T01:56:10;50.37;;;26.63;;
15342;SDS011;7771;48.478;8.936;2023-03-03T01:58:39;49.87;;;26.87;;
15342;SDS011;7771;48.478;8.936;2023-03-03T02:01:08;49.00;;;26.23;;
15342;SDS011;7771;48.478;8.936;2023-03-03T02:03:33;53.60;;;27.97;;
15342;SDS011;7771;48.478;8.936;2023-03-03T02:06:03;46.17;;;25.60;;
15342;SDS011;7771;48.478;8.936;2023-03-03T02:08:32;50.80;;;26.83;;
15342;SDS011;7771;48.478;8.936;2023-03-03T02:10:57;50.80;;;26.67;;
15342;SDS011;7771;48.478;8.936;2023-03-03T02:13:25;48.07;;;26.83;;
15342;SDS011;7771;48.478;8.936;2023-03-03T02:15:52;53.43;;;26.93;;
15342;SDS011;7771;48.478;8.936;2023-03-03T02:18:19;48.27;;;26.53;;
15342;SDS011;7771;48.478;8.936;2023-03-03T02:20:51;48.97;;;26.87;;
15342;SDS011;7771;48.478;8.936;2023-03-03T02:23:43;52.03;;;26.97;;
15342;SDS011;7771;48.478;8.936;2023-03-03T02:26:09;47.17;;;26.53;;
15342;SDS011;7771;48.478;8.936;2023-03-03T02:28:36;55.07;;;27.47;;
15342;SDS011;7771;48.478;8.936;2023-03-03T02:31:04;54.57;;;27.03;;
15342;SDS011;7771;48.478;8.936;2023-03-03T02:33:30;50.40;;;28.83;;
15342;SDS011;7771;48.478;8.936;2023-03-03T02:35:58;51.77;;;27.30;;
15342;SDS011;7771;48.478;8.936;2023-03-03T02:38:34;49.03;;;28.23;;
15342;SDS011;7771;48.478;8.936;2023-03-03T02:41:05;50.17;;;27.53;;
15342;SDS011;7771;48.478;8.936;2023-03-03T02:43:51;54.00;;;28.73;;
15342;SDS011;7771;48.478;8.936;2023-03-03T02:46:13;47.97;;;27.57;;
15342;SDS011;7771;48.478;8.936;2023-03-03T02:48:41;54.17;;;29.10;;
15342;SDS011;7771;48.478;8.936;2023-03-03T02:51:07;50.83;;;27.37;;
15342;SDS011;7771;48.478;8.936;2023-03-03T02:53:34;49.83;;;28.07;;
15342;SDS011;7771;48.478;8.936;2023-03-03T02:56:01;51.03;;;27.60;;
15342;SDS011;7771;48.478;8.936;2023-03-03T02:58:27;53.17;;;27.20;;
15342;SDS011;7771;48.478;8.936;2023-03-03T03:00:55;56.97;;;29.13;;
15342;SDS011;7771;48.478;8.936;2023-03-03T03:03:22;50.53;;;28.00;;
15342;SDS011;7771;48.478;8.936;2023-03-03T03:05:50;50.67;;;26.73;;
15342;SDS011;7771;48.478;8.936;2023-03-03T03:08:17;56.07;;;28.10;;
15342;SDS011;7771;48.478;8.936;2023-03-03T03:10:44;50.37;;;28.17;;
15342;SDS011;7771;48.478;8.936;2023-03-03T03:13:10;50.63;;;26.97;;
15342;SDS011;7771;48.478;8.936;2023-03-03T03:15:38;46.23;;;25.23;;
15342;SDS011;7771;48.478;8.936;2023-03-03T03:18:04;51.47;;;27.40;;
15342;SDS011;7771;48.478;8.936;2023-03-03T03:20:35;46.63;;;25.40;;
15342;SDS011;7771;48.478;8.936;2023-03-03T03:23:01;50.37;;;27.60;;
15342;SDS011;7771;48.478;8.936;2023-03-03T03:25:29;48.07;;;26.50;;
15342;SDS011;7771;48.478;8.936;2023-03-03T03:27:56;49.77;;;26.53;;
15342;SDS011;7771;48.478;8.936;2023-03-03T03:30:24;53.00;;;26.97;;
15342;SDS011;7771;48.478;8.936;2023-03-03T03:32:50;53.40;;;26.67;;
15342;SDS011;7771;48.478;8.936;2023-03-03T03:35:17;52.10;;;26.63;;
15342;SDS011;7771;48.478;8.936;2023-03-03T03:37:44;50.63;;;27.17;;
15342;SDS011;7771;48.478;8.936;2023-03-03T03:40:11;49.10;;;25.70;;
15342;SDS011;7771;48.478;8.936;2023-03-03T03:42:38;47.50;;;26.27;;
15342;SDS011;7771;48.478;8.936;2023-03-03T03:45:05;46.40;;;26.00;;
15342;SDS011;7771;48.478;8.936;2023-03-03T03:47:34;46.67;;;25.90;;
15342;SDS011;7771;48.478;8.936;2023-03-03T03:50:01;49.67;;;26.10;;
15342;SDS011;7771;48.478;8.936;2023-03-03T03:52:28;45.50;;;25.30;;
15342;SDS011;7771;48.478;8.936;2023-03-03T03:54:55;47.73;;;24.97;;
15342;SDS011;7771;48.478;8.936;2023-03-03T03:57:23;45.80;;;26.07;;
15342;SDS011;7771;48.478;8.936;2023-03-03T03:59:50;47.87;;;26.43;;
15342;SDS011;7771;48.478;8.936;2023-03-03T04:02:17;45.43;;;25.47;;
15342;SDS011;7771;48.478;8.936;2023-03-03T04:04:44;51.80;;;26.63;;
15342;SDS011;7771;48.478;8.936;2023-03-03T04:07:11;49.03;;;27.13;;
15342;SDS011;7771;48.478;8.936;2023-03-03T04:09:38;58.63;;;28.47;;
15342;SDS011;7771;48.478;8.936;2023-03-03T04:12:05;51.83;;;27.43;;
15342;SDS011;7771;48.478;8.936;2023-03-03T04:14:31;50.40;;;26.10;;
15342;SDS011;7771;48.478;8.936;2023-03-03T04:16:58;49.03;;;27.43;;
15342;SDS011;7771;48.478;8.936;2023-03-03T04:19:25;53.77;;;26.90;;
15342;SDS011;7771;48.478;8.936;2023-03-03T04:21:51;49.63;;;26.27;;
15342;SDS011;7771;48.478;8.936;2023-03-03T04:24:18;49.87;;;25.50;;
15342;SDS011;7771;48.478;8.936;2023-03-03T04:26:45;48.40;;;26.17;;
15342;SDS011;7771;48.478;8.936;2023-03-03T04:29:11;51.07;;;26.53;;
15342;SDS011;7771;48.478;8.936;2023-03-03T04:31:38;49.57;;;26.70;;
15342;SDS011;7771;48.478;8.936;2023-03-03T04:34:05;49.67;;;27.17;;
15342;SDS011;7771;48.478;8.936;2023-03-03T04:36:33;53.03;;;26.83;;
15342;SDS011;7771;48.478;8.936;2023-03-03T04:39:00;53.23;;;27.30;;
15342;SDS011;7771;48.478;8.936;2023-03-03T04:41:28;51.10;;;25.43;;
15342;SDS011;7771;48.478;8.936;2023-03-03T04:43:55;53.03;;;26.93;;
15342;SDS011;7771;48.478;8.936;2023-03-03T04:46:23;52.37;;;26.23;;
15342;SDS011;7771;48.478;8.936;2023-03-03T04:48:50;49.37;;;26.53;;
15342;SDS011;7771;48.478;8.936;2023-03-03T04:51:16;55.30;;;28.07;;
15342;SDS011;7771;48.478;8.936;2023-03-03T04:53:44;49.80;;;26.20;;
15342;SDS011;7771;48.478;8.936;2023-03-03T04:56:11;51.23;;;26.90;;
15342;SDS011;7771;48.478;8.936;2023-03-03T04:58:43;48.50;;;27.20;;
15342;SDS011;7771;48.478;8.936;2023-03-03T05:01:12;50.63;;;27.17;;
15342;SDS011;7771;48.478;8.936;2023-03-03T05:03:39;51.27;;;26.97;;
15342;SDS011;7771;48.478;8.936;2023-03-03T05:06:06;50.57;;;26.73;;
15342;SDS011;7771;48.478;8.936;2023-03-03T05:08:33;51.07;;;27.97;;
15342;SDS011;7771;48.478;8.936;2023-03-03T05:11:00;52.00;;;26.87;;
15342;SDS011;7771;48.478;8.936;2023-03-03T05:13:27;51.20;;;27.00;;
15342;SDS011;7771;48.478;8.936;2023-03-03T05:15:54;48.63;;;26.93;;
15342;SDS011;7771;48.478;8.936;2023-03-03T05:18:21;54.97;;;28.80;;
15342;SDS011;7771;48.478;8.936;2023-03-03T05:20:47;54.57;;;28.00;;
15342;SDS011;7771;48.478;8.936;2023-03-03T05:23:15;50.67;;;27.13;;
15342;SDS011;7771;48.478;8.936;2023-03-03T05:25:43;48.60;;;27.27;;
15342;SDS011;7771;48.478;8.936;2023-03-03T05:28:10;46.57;;;27.60;;
15342;SDS011;7771;48.478;8.936;2023-03-03T05:30:37;46.63;;;27.63;;
15342;SDS011;7771;48.478;8.936;2023-03-03T05:33:04;47.67;;;27.40;;
15342;SDS011;7771;48.478;8.936;2023-03-03T05:35:30;50.10;;;27.00;;
15342;SDS011;7771;48.478;8.936;2023-03-03T05:37:57;49.47;;;26.33;;
15342;SDS011;7771;48.478;8.936;2023-03-03T05:40:24;52.87;;;27.27;;
15342;SDS011;7771;48.478;8.936;2023-03-03T05:42:50;52.97;;;28.43;;
15342;SDS011;7771;48.478;8.936;2023-03-03T05:45:17;49.03;;;27.20;;
15342;SDS011;7771;48.478;8.936;2023-03-03T05:47:44;48.13;;;27.97;;
15342;SDS011;7771;48.478;8.936;2023-03-03T05:50:11;52.70;;;27.30;;
15342;SDS011;7771;48.478;8.936;2023-03-03T05:52:38;55.27;;;28.23;;
15342;SDS011;7771;48.478;8.936;2023-03-03T05:55:05;45.53;;;25.93;;
15342;SDS011;7771;48.478;8.936;2023-03-03T05:57:32;55.40;;;30.07;;
15342;SDS011;7771;48.478;8.936;2023-03-03T05:59:59;48.20;;;27.07;;
15342;SDS011;7771;48.478;8.936;2023-03-03T06:02:26;53.93;;;29.67;;
15342;SDS011;7771;48.478;8.936;2023-03-03T06:04:53;54.20;;;29.57;;
15342;SDS011;7771;48.478;8.936;2023-03-03T06:07:21;54.60;;;29.43;;
15342;SDS011;7771;48.478;8.936;2023-03-03T06:09:48;59.37;;;29.27;;
15342;SDS011;7771;48.478;8.936;2023-03-03T06:12:15;67.97;;;38.43;;
15342;SDS011;7771;48.478;8.936;2023-03-03T06:14:41;63.93;;;38.70;;
15342;SDS011;7771;48.478;8.936;2023-03-03T06:17:09;73.83;;;44.50;;
15342;SDS011;7771;48.478;8.936;2023-03-03T06:19:36;59.33;;;35.43;;
15342;SDS011;7771;48.478;8.936;2023-03-03T06:22:03;55.80;;;32.20;;
15342;SDS011;7771;48.478;8.936;2023-03-03T06:24:31;56.00;;;33.70;;
15342;SDS011;7771;48.478;8.936;2023-03-03T06:26:59;50.10;;;30.80;;
15342;SDS011;7771;48.478;8.936;2023-03-03T06:29:25;54.43;;;29.27;;
15342;SDS011;7771;48.478;8.936;2023-03-03T06:31:53;55.70;;;29.40;;
15342;SDS011;7771;48.478;8.936;2023-03-03T06:34:20;57.83;;;30.50;;
15342;SDS011;7771;48.478;8.936;2023-03-03T06:36:47;59.80;;;30.43;;
15342;SDS011;7771;48.478;8.936;2023-03-03T06:39:14;52.60;;;28.90;;
15342;SDS011;7771;48.478;8.936;2023-03-03T06:41:41;50.33;;;27.73;;
15342;SDS011;7771;48.478;8.936;2023-03-03T06:44:08;55.73;;;29.87;;
15342;SDS011;7771;48.478;8.936;2023-03-03T06:46:36;51.17;;;28.50;;
15342;SDS011;7771;48.478;8.936;2023-03-03T06:49:04;56.13;;;29.20;;
15342;SDS011;7771;48.478;8.936;2023-03-03T06:51:32;52.93;;;29.83;;
15342;SDS011;7771;48.478;8.936;2023-03-03T06:53:59;57.63;;;30.53;;
15342;SDS011;7771;48.478;8.936;2023-03-03T06:56:25;51.73;;;29.33;;
15342;SDS011;7771;48.478;8.936;2023-03-03T06:58:53;49.60;;;27.83;;
15342;SDS011;7771;48.478;8.936;2023-03-03T07:01:20;57.73;;;29.60;;
15342;SDS011;7771;48.478;8.936;2023-03-03T07:03:47;51.43;;;28.97;;
15342;SDS011;7771;48.478;8.936;2023-03-03T07:06:17;54.63;;;29.67;;
15342;SDS011;7771;48.478;8.936;2023-03-03T07:08:49;46.47;;;27.43;;
15342;SDS011;7771;48.478;8.936;2023-03-03T07:11:17;45.03;;;27.30;;
15342;SDS011;7771;48.478;8.936;2023-03-03T07:13:43;52.53;;;27.67;;
15342;SDS011;7771;48.478;8.936;2023-03-03T07:16:11;54.53;;;28.93;;
15342;SDS011;7771;48.478;8.936;2023-03-03T07:18:39;52.73;;;29.07;;
15342;SDS011;7771;48.478;8.936;2023-03-03T07:21:12;52.10;;;29.17;;
15342;SDS011;7771;48.478;8.936;2023-03-03T07:23:39;50.33;;;28.57;;
15342;SDS011;7771;48.478;8.936;2023-03-03T07:26:11;49.33;;;28.20;;
15342;SDS011;7771;48.478;8.936;2023-03-03T07:28:39;54.43;;;27.60;;
15342;SDS011;7771;48.478;8.936;2023-03-03T07:31:15;50.17;;;27.40;;
15342;SDS011;7771;48.478;8.936;2023-03-03T07:33:34;47.20;;;27.70;;
15342;SDS011;7771;48.478;8.936;2023-03-03T07:36:01;49.10;;;28.13;;
15342;SDS011;7771;48.478;8.936;2023-03-03T07:38:30;48.93;;;27.00;;
15342;SDS011;7771;48.478;8.936;2023-03-03T07:40:58;50.73;;;29.20;;
15342;SDS011;7771;48.478;8.936;2023-03-03T07:43:28;46.27;;;27.83;;
15342;SDS011;7771;48.478;8.936;2023-03-03T07:45:57;51.47;;;28.23;;
15342;SDS011;7771;48.478;8.936;2023-03-03T07:48:25;47.10;;;26.97;;
15342;SDS011;7771;48.478;8.936;2023-03-03T07:50:52;53.13;;;29.43;;
15342;SDS011;7771;48.478;8.936;2023-03-03T07:53:21;46.13;;;27.03;;
15342;SDS011;7771;48.478;8.936;2023-03-03T07:55:47;50.20;;;28.43;;
15342;SDS011;7771;48.478;8.936;2023-03-03T07:58:16;51.93;;;28.27;;
15342;SDS011;7771;48.478;8.936;2023-03-03T08:03:29;48.40;;;27.27;;
15342;SDS011;7771;48.478;8.936;2023-03-03T08:05:56;51.20;;;28.43;;
15342;SDS011;7771;48.478;8.936;2023-03-03T08:08:27;46.13;;;27.00;;
15342;SDS011;7771;48.478;8.936;2023-03-03T08:10:56;46.63;;;26.20;;
15342;SDS011;7771;48.478;8.936;2023-03-03T08:13:23;57.37;;;28.00;;
15342;SDS011;7771;48.478;8.936;2023-03-03T08:16:25;46.57;;;26.43;;
15342;SDS011;7771;48.478;8.936;2023-03-03T08:18:51;50.90;;;26.83;;
15342;SDS011;7771;48.478;8.936;2023-03-03T08:21:19;48.40;;;26.80;;
15342;SDS011;7771;48.478;8.936;2023-03-03T08:23:45;53.17;;;28.17;;
15342;SDS011;7771;48.478;8.936;2023-03-03T08:26:12;47.03;;;27.40;;
15342;SDS011;7771;48.478;8.936;2023-03-03T08:28:41;46.97;;;26.93;;
15342;SDS011;7771;48.478;8.936;2023-03-03T08:31:07;50.67;;;28.77;;
15342;SDS011;7771;48.478;8.936;2023-03-03T08:33:34;45.30;;;26.77;;
15342;SDS011;7771;48.478;8.936;2023-03-03T08:36:01;45.37;;;25.87;;
15342;SDS011;7771;48.478;8.936;2023-03-03T08:38:27;48.93;;;27.60;;
15342;SDS011;7771;48.478;8.936;2023-03-03T08:40:54;52.80;;;26.50;;
15342;SDS011;7771;48.478;8.936;2023-03-03T08:43:21;45.43;;;26.37;;
15342;SDS011;7771;48.478;8.936;2023-03-03T08:45:48;46.70;;;26.90;;
15342;SDS011;7771;48.478;8.936;2023-03-03T08:48:15;50.70;;;27.40;;
15342;SDS011;7771;48.478;8.936;2023-03-03T08:50:41;51.90;;;27.03;;
15342;SDS011;7771;48.478;8.936;2023-03-03T08:53:09;46.97;;;27.83;;
15342;SDS011;7771;48.478;8.936;2023-03-03T08:55:37;48.63;;;27.00;;
15342;SDS011;7771;48.478;8.936;2023-03-03T08:58:02;47.03;;;26.20;;
15342;SDS011;7771;48.478;8.936;2023-03-03T09:00:29;47.40;;;27.70;;
15342;SDS011;7771;48.478;8.936;2023-03-03T09:02:56;52.93;;;28.17;;
15342;SDS011;7771;48.478;8.936;2023-03-03T09:05:24;46.67;;;27.13;;
15342;SDS011;7771;48.478;8.936;2023-03-03T09:07:51;48.07;;;26.87;;
15342;SDS011;7771;48.478;8.936;2023-03-03T09:10:19;48.63;;;28.33;;
15342;SDS011;7771;48.478;8.936;2023-03-03T09:12:46;49.27;;;27.13;;
15342;SDS011;7771;48.478;8.936;2023-03-03T09:15:16;49.70;;;27.27;;
15342;SDS011;7771;48.478;8.936;2023-03-03T09:17:42;49.80;;;27.10;;
15342;SDS011;7771;48.478;8.936;2023-03-03T09:22:52;46.57;;;26.37;;
15342;SDS011;7771;48.478;8.936;2023-03-03T09:25:33;49.20;;;27.27;;
15342;SDS011;7771;48.478;8.936;2023-03-03T09:30:51;48.23;;;26.30;;
15342;SDS011;7771;48.478;8.936;2023-03-03T09:33:21;42.83;;;24.93;;
15342;SDS011;7771;48.478;8.936;2023-03-03T09:35:49;40.50;;;25.13;;
15342;SDS011;7771;48.478;8.936;2023-03-03T09:38:23;49.53;;;26.33;;
15342;SDS011;7771;48.478;8.936;2023-03-03T09:40:50;44.00;;;26.30;;
15342;SDS011;7771;48.478;8.936;2023-03-03T09:43:18;42.47;;;26.03;;
15342;SDS011;7771;48.478;8.936;2023-03-03T09:46:05;50.90;;;26.97;;
15342;SDS011;7771;48.478;8.936;2023-03-03T09:48:49;50.47;;;27.90;;
15342;SDS011;7771;48.478;8.936;2023-03-03T09:51:17;45.97;;;27.40;;
15342;SDS011;7771;48.478;8.936;2023-03-03T09:53:45;43.83;;;26.50;;
15342;SDS011;7771;48.478;8.936;2023-03-03T09:56:18;48.23;;;27.37;;
15342;SDS011;7771;48.478;8.936;2023-03-03T09:58:52;44.07;;;26.50;;
15342;SDS011;7771;48.478;8.936;2023-03-03T10:01:37;42.40;;;26.03;;
15342;SDS011;7771;48.478;8.936;2023-03-03T10:07:00;42.87;;;26.20;;
15342;SDS011;7771;48.478;8.936;2023-03-03T10:09:44;47.23;;;28.57;;
15342;SDS011;7771;48.478;8.936;2023-03-03T10:14:53;46.57;;;26.67;;
15342;SDS011;7771;48.478;8.936;2023-03-03T10:17:40;43.97;;;26.13;;
15342;SDS011;7771;48.478;8.936;2023-03-03T10:20:14;45.40;;;27.07;;
15342;SDS011;7771;48.478;8.936;2023-03-03T10:22:42;44.80;;;27.50;;
15342;SDS011;7771;48.478;8.936;2023-03-03T10:25:13;45.33;;;26.50;;
15342;SDS011;7771;48.478;8.936;2023-03-03T10:27:54;47.90;;;27.67;;
15342;SDS011;7771;48.478;8.936;2023-03-03T10:30:32;46.57;;;26.20;;
15342;SDS011;7771;48.478;8.936;2023-03-03T10:33:00;40.00;;;26.90;;
15342;SDS011;7771;48.478;8.936;2023-03-03T10:35:38;46.97;;;29.60;;
15342;SDS011;7771;48.478;8.936;2023-03-03T10:38:13;44.93;;;26.83;;
15342;SDS011;7771;48.478;8.936;2023-03-03T10:40:48;52.67;;;27.77;;
15342;SDS011;7771;48.478;8.936;2023-03-03T10:43:24;43.03;;;27.10;;
15342;SDS011;7771;48.478;8.936;2023-03-03T10:51:26;45.23;;;27.50;;
15342;SDS011;7771;48.478;8.936;2023-03-03T10:54:05;43.90;;;26.87;;
15342;SDS011;7771;48.478;8.936;2023-03-03T10:56:39;43.57;;;27.17;;
15342;SDS011;7771;48.478;8.936;2023-03-03T10:59:28;49.73;;;27.37;;
15342;SDS011;7771;48.478;8.936;2023-03-03T11:01:59;43.37;;;27.97;;
15342;SDS011;7771;48.478;8.936;2023-03-03T11:04:31;46.10;;;26.60;;
15342;SDS011;7771;48.478;8.936;2023-03-03T11:06:59;48.50;;;27.30;;
15342;SDS011;7771;48.478;8.936;2023-03-03T11:10:33;44.23;;;27.50;;
15342;SDS011;7771;48.478;8.936;2023-03-03T11:12:21;43.73;;;27.30;;
15342;SDS011;7771;48.478;8.936;2023-03-03T11:14:52;43.43;;;27.47;;
15342;SDS011;7771;48.478;8.936;2023-03-03T11:22:53;43.97;;;26.53;;
15342;SDS011;7771;48.478;8.936;2023-03-03T11:25:22;44.57;;;27.53;;
15342;SDS011;7771;48.478;8.936;2023-03-03T11:30:57;51.93;;;27.50;;
15342;SDS011;7771;48.478;8.936;2023-03-03T11:33:29;44.40;;;27.63;;
15342;SDS011;7771;48.478;8.936;2023-03-03T11:36:06;44.00;;;26.97;;
15342;SDS011;7771;48.478;8.936;2023-03-03T11:38:41;43.47;;;26.43;;
15342;SDS011;7771;48.478;8.936;2023-03-03T11:41:14;47.60;;;27.53;;
15342;SDS011;7771;48.478;8.936;2023-03-03T11:43:43;39.53;;;25.80;;
15342;SDS011;7771;48.478;8.936;2023-03-03T11:46:29;44.57;;;26.90;;
15342;SDS011;7771;48.478;8.936;2023-03-03T11:49:02;45.00;;;26.97;;
15342;SDS011;7771;48.478;8.936;2023-03-03T11:51:39;43.60;;;26.87;;
15342;SDS011;7771;48.478;8.936;2023-03-03T11:54:09;41.90;;;26.53;;
15342;SDS011;7771;48.478;8.936;2023-03-03T11:56:38;46.67;;;29.13;;
15342;SDS011;7771;48.478;8.936;2023-03-03T11:59:15;46.90;;;28.10;;
15342;SDS011;7771;48.478;8.936;2023-03-03T12:02:00;41.63;;;27.63;;
15342;SDS011;7771;48.478;8.936;2023-03-03T12:04:35;46.33;;;26.40;;
15342;SDS011;7771;48.478;8.936;2023-03-03T12:07:40;44.17;;;26.40;;
15342;SDS011;7771;48.478;8.936;2023-03-03T12:13:00;42.63;;;26.83;;
15342;SDS011;7771;48.478;8.936;2023-03-03T12:15:40;46.93;;;28.50;;
15342;SDS011;7771;48.478;8.936;2023-03-03T12:20:54;45.07;;;27.33;;
15342;SDS011;7771;48.478;8.936;2023-03-03T12:23:59;43.27;;;27.30;;
15342;SDS011;7771;48.478;8.936;2023-03-03T12:26:30;41.23;;;26.43;;
15342;SDS011;7771;48.478;8.936;2023-03-03T12:29:15;43.20;;;27.97;;
15342;SDS011;7771;48.478;8.936;2023-03-03T12:31:52;44.80;;;28.87;;
15342;SDS011;7771;48.478;8.936;2023-03-03T12:34:18;40.97;;;26.67;;
15342;SDS011;7771;48.478;8.936;2023-03-03T12:36:49;55.13;;;34.00;;
15342;SDS011;7771;48.478;8.936;2023-03-03T12:39:29;43.23;;;26.87;;
15342;SDS011;7771;48.478;8.936;2023-03-03T12:42:02;41.07;;;27.73;;
15342;SDS011;7771;48.478;8.936;2023-03-03T12:44:46;39.33;;;25.80;;
15342;SDS011;7771;48.478;8.936;2023-03-03T12:47:15;42.53;;;26.67;;
15342;SDS011;7771;48.478;8.936;2023-03-03T12:49:43;40.87;;;27.00;;
15342;SDS011;7771;48.478;8.936;2023-03-03T12:52:14;39.23;;;26.07;;
15342;SDS011;7771;48.478;8.936;2023-03-03T12:54:49;41.87;;;26.43;;
15342;SDS011;7771;48.478;8.936;2023-03-03T13:00:18;43.10;;;26.53;;
15342;SDS011;7771;48.478;8.936;2023-03-03T13:02:58;36.03;;;25.17;;
15342;SDS011;7771;48.478;8.936;2023-03-03T13:05:29;60.27;;;27.30;;
15342;SDS011;7771;48.478;8.936;2023-03-03T13:08:02;75.13;;;32.33;;
15342;SDS011;7771;48.478;8.936;2023-03-03T13:10:31;46.83;;;25.70;;
15342;SDS011;7771;48.478;8.936;2023-03-03T13:13:00;45.67;;;26.53;;
15342;SDS011;7771;48.478;8.936;2023-03-03T13:15:28;40.93;;;26.37;;
15342;SDS011;7771;48.478;8.936;2023-03-03T13:17:57;38.40;;;24.93;;
15342;SDS011;7771;48.478;8.936;2023-03-03T13:20:29;43.37;;;26.97;;
15342;SDS011;7771;48.478;8.936;2023-03-03T13:23:16;40.10;;;24.67;;
15342;SDS011;7771;48.478;8.936;2023-03-03T13:25:42;41.67;;;26.23;;
15342;SDS011;7771;48.478;8.936;2023-03-03T13:28:21;43.23;;;24.90;;
15342;SDS011;7771;48.478;8.936;2023-03-03T13:30:48;44.63;;;27.50;;
15342;SDS011;7771;48.478;8.936;2023-03-03T13:33:15;43.37;;;26.83;;
15342;SDS011;7771;48.478;8.936;2023-03-03T13:35:44;40.27;;;26.00;;
15342;SDS011;7771;48.478;8.936;2023-03-03T13:38:19;44.50;;;26.73;;
15342;SDS011;7771;48.478;8.936;2023-03-03T13:40:46;40.47;;;25.77;;
15342;SDS011;7771;48.478;8.936;2023-03-03T13:43:18;42.53;;;26.33;;
15342;SDS011;7771;48.478;8.936;2023-03-03T13:51:13;44.03;;;26.50;;
15342;SDS011;7771;48.478;8.936;2023-03-03T13:56:22;47.33;;;27.80;;
15342;SDS011;7771;48.478;8.936;2023-03-03T13:58:49;38.10;;;25.70;;
15342;SDS011;7771;48.478;8.936;2023-03-03T14:01:21;40.93;;;25.87;;
15342;SDS011;7771;48.478;8.936;2023-03-03T14:03:51;38.00;;;24.57;;
15342;SDS011;7771;48.478;8.936;2023-03-03T14:06:30;38.67;;;26.03;;
15342;SDS011;7771;48.478;8.936;2023-03-03T14:08:59;42.93;;;25.63;;
15342;SDS011;7771;48.478;8.936;2023-03-03T14:11:33;40.27;;;25.50;;
15342;SDS011;7771;48.478;8.936;2023-03-03T14:14:18;46.60;;;25.40;;
15342;SDS011;7771;48.478;8.936;2023-03-03T14:16:49;42.77;;;25.90;;
15342;SDS011;7771;48.478;8.936;2023-03-03T14:19:33;41.00;;;25.70;;
15342;SDS011;7771;48.478;8.936;2023-03-03T14:22:05;38.30;;;25.03;;
15342;SDS011;7771;48.478;8.936;2023-03-03T14:27:33;47.57;;;25.67;;
15342;SDS011;7771;48.478;8.936;2023-03-03T14:30:18;41.43;;;25.37;;
15342;SDS011;7771;48.478;8.936;2023-03-03T14:32:42;37.73;;;24.23;;
15342;SDS011;7771;48.478;8.936;2023-03-03T14:35:13;40.30;;;25.03;;
15342;SDS011;7771;48.478;8.936;2023-03-03T14:37:42;38.57;;;24.00;;
15342;SDS011;7771;48.478;8.936;2023-03-03T14:40:18;37.30;;;23.83;;
15342;SDS011;7771;48.478;8.936;2023-03-03T14:42:53;40.00;;;23.40;;
15342;SDS011;7771;48.478;8.936;2023-03-03T14:45:21;35.03;;;22.33;;
15342;SDS011;7771;48.478;8.936;2023-03-03T14:47:46;41.00;;;23.57;;
15342;SDS011;7771;48.478;8.936;2023-03-03T14:53:03;38.30;;;24.07;;
15342;SDS011;7771;48.478;8.936;2023-03-03T14:55:30;41.50;;;26.10;;
15342;SDS011;7771;48.478;8.936;2023-03-03T14:57:56;35.40;;;22.80;;
15342;SDS011;7771;48.478;8.936;2023-03-03T15:00:27;36.33;;;22.70;;
15342;SDS011;7771;48.478;8.936;2023-03-03T15:05:29;37.83;;;22.10;;
15342;SDS011;7771;48.478;8.936;2023-03-03T15:08:06;31.63;;;20.20;;
15342;SDS011;7771;48.478;8.936;2023-03-03T15:10:39;35.00;;;21.53;;
15342;SDS011;7771;48.478;8.936;2023-03-03T15:18:17;39.63;;;20.03;;
15342;SDS011;7771;48.478;8.936;2023-03-03T15:21:02;29.37;;;19.77;;
15342;SDS011;7771;48.478;8.936;2023-03-03T15:23:35;38.53;;;24.33;;
15342;SDS011;7771;48.478;8.936;2023-03-03T15:26:19;33.57;;;19.70;;
15342;SDS011;7771;48.478;8.936;2023-03-03T15:29:03;30.47;;;18.40;;
15342;SDS011;7771;48.478;8.936;2023-03-03T15:31:37;27.00;;;18.63;;
15342;SDS011;7771;48.478;8.936;2023-03-03T15:34:16;34.40;;;20.37;;
15342;SDS011;7771;48.478;8.936;2023-03-03T15:39:27;32.70;;;19.90;;
15342;SDS011;7771;48.478;8.936;2023-03-03T15:41:56;29.80;;;18.80;;
15342;SDS011;7771;48.478;8.936;2023-03-03T15:44:37;32.87;;;19.03;;
15342;SDS011;7771;48.478;8.936;2023-03-03T15:47:27;30.80;;;19.00;;
15342;SDS011;7771;48.478;8.936;2023-03-03T15:49:56;28.23;;;18.80;;
15342;SDS011;7771;48.478;8.936;2023-03-03T15:52:39;31.67;;;20.00;;